Time;durP1;ratioP1;P1;durP2;ratioP2;P2;SDS_P1;SDS_P2;PMS_P1;PMS_P2;Temp;Humidity;BMP_temperature;BMP_pressure;BME280_temperature;BME280_humidity;BME280_pressure;Samples;Min_cycle;Max_cycle;Signal;HPM_P1;HPM_P2
2022/06/27 00:01:30;;;;;;;12.48;6.82;;;;;;;;;;5014237;28;20195;-63
2022/06/27 00:03:56;;;;;;;12.05;7.20;;;;;;;;;;5013264;28;20192;-63
2022/06/27 00:06:22;;;;;;;11.48;6.47;;;;;;;;;;4996566;28;20181;-63
2022/06/27 00:08:49;;;;;;;9.20;6.95;;;;;;;;;;4995568;28;20283;-63
2022/06/27 00:11:15;;;;;;;10.45;6.85;;;;;;;;;;5014183;28;20185;-63
2022/06/27 00:13:42;;;;;;;13.45;7.13;;;;;;;;;;5012951;28;20558;-62
2022/06/27 00:16:08;;;;;;;15.18;7.10;;;;;;;;;;5013645;28;20216;-63
2022/06/27 00:18:34;;;;;;;18.30;7.50;;;;;;;;;;4996693;28;20231;-63
2022/06/27 00:21:00;;;;;;;13.43;7.18;;;;;;;;;;5013424;28;20207;-63
2022/06/27 00:23:26;;;;;;;13.15;7.05;;;;;;;;;;5013222;28;20238;-63
2022/06/27 00:25:52;;;;;;;11.88;6.65;;;;;;;;;;5013654;28;20195;-62
2022/06/27 00:28:18;;;;;;;13.07;7.43;;;;;;;;;;5014080;28;20604;-63
2022/06/27 00:30:44;;;;;;;11.85;7.70;;;;;;;;;;4996054;28;20560;-63
2022/06/27 00:33:11;;;;;;;13.95;7.82;;;;;;;;;;4995180;28;20275;-62
2022/06/27 00:35:37;;;;;;;10.80;7.10;;;;;;;;;;5012816;28;20272;-63
2022/06/27 00:38:03;;;;;;;13.93;8.02;;;;;;;;;;4995951;28;20219;-63
2022/06/27 00:40:29;;;;;;;16.48;8.43;;;;;;;;;;4995682;28;20191;-63
2022/06/27 00:42:55;;;;;;;14.43;8.60;;;;;;;;;;5012910;28;20189;-62
2022/06/27 00:45:21;;;;;;;16.08;8.00;;;;;;;;;;5013327;28;20188;-62
2022/06/27 00:47:47;;;;;;;17.38;9.00;;;;;;;;;;5013569;28;20223;-62
2022/06/27 00:50:13;;;;;;;12.30;8.40;;;;;;;;;;5012335;28;20275;-62
2022/06/27 00:52:40;;;;;;;14.98;8.88;;;;;;;;;;5012220;28;20243;-62
2022/06/27 00:55:07;;;;;;;11.70;8.65;;;;;;;;;;5012614;28;20187;-63
2022/06/27 00:57:33;;;;;;;15.75;9.25;;;;;;;;;;5013611;28;20266;-63
2022/06/27 00:59:59;;;;;;;17.50;8.90;;;;;;;;;;4995679;28;20180;-64
2022/06/27 01:02:25;;;;;;;16.73;9.73;;;;;;;;;;5011597;28;20180;-62
2022/06/27 01:04:52;;;;;;;17.92;9.50;;;;;;;;;;5012931;28;20185;-63
2022/06/27 01:07:18;;;;;;;17.05;9.25;;;;;;;;;;4995067;28;20282;-63
2022/06/27 01:09:44;;;;;;;18.38;9.82;;;;;;;;;;5011959;28;20216;-63
2022/06/27 01:12:11;;;;;;;17.45;10.40;;;;;;;;;;5012427;28;20647;-63
2022/06/27 01:14:37;;;;;;;16.00;10.07;;;;;;;;;;4995578;28;20184;-63
2022/06/27 01:17:04;;;;;;;16.40;10.98;;;;;;;;;;4995746;28;20176;-63
2022/06/27 01:19:30;;;;;;;15.32;10.68;;;;;;;;;;4994252;28;20180;-63
2022/06/27 01:21:57;;;;;;;16.90;10.18;;;;;;;;;;5012129;28;20675;-63
2022/06/27 01:24:25;;;;;;;18.65;9.68;;;;;;;;;;4997338;28;21304;-62
2022/06/27 01:26:52;;;;;;;15.65;10.00;;;;;;;;;;4995999;28;20215;-62
2022/06/27 01:29:19;;;;;;;13.38;9.30;;;;;;;;;;4995508;28;20226;-63
2022/06/27 01:31:46;;;;;;;16.30;9.95;;;;;;;;;;4993799;28;20283;-65
2022/06/27 01:34:13;;;;;;;15.40;10.02;;;;;;;;;;4983663;28;20212;-63
2022/06/27 01:36:41;;;;;;;16.98;10.02;;;;;;;;;;4995448;28;20173;-63
2022/06/27 01:39:18;;;;;;;19.13;10.43;;;;;;;;;;4994879;28;20212;-63
2022/06/27 01:41:48;;;;;;;16.23;9.90;;;;;;;;;;5011577;28;20183;-63
2022/06/27 01:44:15;;;;;;;21.20;10.38;;;;;;;;;;4995089;28;20216;-64
2022/06/27 01:46:44;;;;;;;15.63;10.70;;;;;;;;;;4995074;28;20188;-63
2022/06/27 01:49:11;;;;;;;19.63;10.75;;;;;;;;;;4994908;28;20207;-63
2022/06/27 01:51:38;;;;;;;20.90;10.63;;;;;;;;;;4991747;28;20176;-63
2022/06/27 01:54:04;;;;;;;15.32;10.10;;;;;;;;;;4995229;28;20555;-63
2022/06/27 01:56:31;;;;;;;17.83;10.93;;;;;;;;;;5013232;28;20181;-63
2022/06/27 01:58:58;;;;;;;16.10;10.90;;;;;;;;;;4994624;28;20220;-64
2022/06/27 02:01:26;;;;;;;17.33;10.50;;;;;;;;;;4983345;28;20609;-63
2022/06/27 02:03:53;;;;;;;16.40;11.05;;;;;;;;;;5011063;28;20554;-63
2022/06/27 02:06:19;;;;;;;21.20;11.23;;;;;;;;;;4995026;28;20201;-63
2022/06/27 02:08:46;;;;;;;15.98;9.93;;;;;;;;;;4994632;28;20192;-64
2022/06/27 02:11:15;;;;;;;13.35;9.20;;;;;;;;;;4995527;28;20184;-63
2022/06/27 02:13:42;;;;;;;16.25;8.55;;;;;;;;;;5015893;28;20194;-63
2022/06/27 02:16:13;;;;;;;14.85;8.88;;;;;;;;;;4998577;28;20226;-63
2022/06/27 02:18:40;;;;;;;17.00;8.73;;;;;;;;;;4998475;28;20204;-63
2022/06/27 02:21:13;;;;;;;14.82;8.45;;;;;;;;;;5015030;28;20192;-63
2022/06/27 02:23:40;;;;;;;11.70;7.97;;;;;;;;;;4998796;28;20216;-63
2022/06/27 02:26:10;;;;;;;15.75;8.00;;;;;;;;;;5015866;28;20204;-63
2022/06/27 02:28:36;;;;;;;14.70;7.97;;;;;;;;;;5014813;28;20303;-63
2022/06/27 02:31:03;;;;;;;11.77;7.35;;;;;;;;;;5016318;28;20212;-63
2022/06/27 02:33:33;;;;;;;15.27;7.68;;;;;;;;;;4998335;28;20648;-63
2022/06/27 02:36:01;;;;;;;19.15;6.95;;;;;;;;;;4998404;28;20180;-64
2022/06/27 02:38:28;;;;;;;10.95;6.90;;;;;;;;;;5016080;28;20616;-63
2022/06/27 02:40:58;;;;;;;12.45;7.18;;;;;;;;;;4995954;28;20200;-63
2022/06/27 02:43:25;;;;;;;12.63;6.80;;;;;;;;;;5016247;28;20184;-63
2022/06/27 02:45:52;;;;;;;12.07;6.72;;;;;;;;;;5015781;28;20198;-63
2022/06/27 02:48:18;;;;;;;13.20;6.70;;;;;;;;;;4997365;28;20188;-64
2022/06/27 02:50:46;;;;;;;10.07;6.95;;;;;;;;;;5013674;28;20267;-63
2022/06/27 02:53:17;;;;;;;12.55;6.65;;;;;;;;;;4997721;28;20629;-63
2022/06/27 02:55:53;;;;;;;12.25;6.45;;;;;;;;;;4998040;28;20719;-62
2022/06/27 02:58:22;;;;;;;11.55;6.82;;;;;;;;;;4997730;28;20236;-68
2022/06/27 03:00:49;;;;;;;12.63;6.50;;;;;;;;;;4981313;28;20203;-63
2022/06/27 03:03:17;;;;;;;11.68;6.32;;;;;;;;;;4997794;28;20524;-63
2022/06/27 03:06:17;;;;;;;9.05;6.10;;;;;;;;;;4997686;28;20219;-64
2022/06/27 03:08:47;;;;;;;13.88;6.45;;;;;;;;;;4953755;28;20645;-63
2022/06/27 03:11:18;;;;;;;11.40;6.65;;;;;;;;;;4998058;28;20193;-63
2022/06/27 03:13:45;;;;;;;12.75;6.30;;;;;;;;;;4997714;28;20636;-63
2022/06/27 03:16:12;;;;;;;9.55;6.40;;;;;;;;;;4981651;28;20219;-63
2022/06/27 03:18:39;;;;;;;13.98;6.47;;;;;;;;;;4996716;28;20745;-63
2022/06/27 03:21:24;;;;;;;11.02;6.45;;;;;;;;;;5014337;28;20223;-63
2022/06/27 03:23:57;;;;;;;10.65;6.38;;;;;;;;;;4996856;28;20197;-63
2022/06/27 03:26:23;;;;;;;14.57;6.43;;;;;;;;;;5014964;28;20185;-63
2022/06/27 03:28:50;;;;;;;12.20;6.07;;;;;;;;;;4995464;28;20192;-64
2022/06/27 03:31:16;;;;;;;17.52;6.30;;;;;;;;;;5002512;28;20181;-63
2022/06/27 03:33:45;;;;;;;13.07;6.03;;;;;;;;;;4997267;28;20272;-63
2022/06/27 03:36:46;;;;;;;11.73;6.82;;;;;;;;;;5000067;28;20188;-64
2022/06/27 03:39:15;;;;;;;14.05;6.65;;;;;;;;;;4985541;28;20216;-65
2022/06/27 03:41:41;;;;;;;12.73;6.32;;;;;;;;;;4981242;28;20200;-63
2022/06/27 03:44:09;;;;;;;8.07;5.63;;;;;;;;;;4996491;28;20173;-63
2022/06/27 03:46:39;;;;;;;12.50;6.50;;;;;;;;;;4995647;28;20183;-63
2022/06/27 03:52:05;;;;;;;10.32;5.90;;;;;;;;;;5013730;28;20662;-61
2022/06/27 03:54:31;;;;;;;13.70;6.78;;;;;;;;;;4997155;28;20271;-62
2022/06/27 03:56:58;;;;;;;9.25;6.00;;;;;;;;;;5014101;28;20196;-62
2022/06/27 03:59:25;;;;;;;13.85;7.00;;;;;;;;;;4996244;28;20220;-62
2022/06/27 04:01:51;;;;;;;11.50;6.93;;;;;;;;;;4996641;28;20671;-63
2022/06/27 04:04:17;;;;;;;14.10;6.40;;;;;;;;;;4996345;28;20189;-62
2022/06/27 04:06:44;;;;;;;10.45;6.60;;;;;;;;;;4993860;28;20188;-62
2022/06/27 04:09:11;;;;;;;12.18;7.05;;;;;;;;;;4995726;28;20256;-62
2022/06/27 04:11:37;;;;;;;11.40;6.78;;;;;;;;;;5014549;28;20216;-62
2022/06/27 04:14:04;;;;;;;17.00;7.25;;;;;;;;;;4996570;28;20373;-63
2022/06/27 04:16:39;;;;;;;11.82;6.80;;;;;;;;;;5014150;28;20205;-62
2022/06/27 04:19:24;;;;;;;13.25;7.40;;;;;;;;;;5011273;28;20210;-62
2022/06/27 04:22:19;;;;;;;14.88;7.20;;;;;;;;;;4981044;28;20710;-64
2022/06/27 04:24:48;;;;;;;12.15;7.25;;;;;;;;;;4989628;28;20204;-63
2022/06/27 04:27:20;;;;;;;12.57;7.63;;;;;;;;;;4980045;28;20184;-63
2022/06/27 04:29:48;;;;;;;23.45;8.02;;;;;;;;;;4995114;28;20644;-62
2022/06/27 04:32:14;;;;;;;15.13;7.45;;;;;;;;;;5013641;28;20177;-63
2022/06/27 04:34:41;;;;;;;11.98;7.80;;;;;;;;;;4989118;28;20180;-63
2022/06/27 04:37:07;;;;;;;13.07;8.32;;;;;;;;;;4995773;28;20562;-63
2022/06/27 04:39:46;;;;;;;12.18;7.97;;;;;;;;;;4994181;28;20223;-63
2022/06/27 04:42:27;;;;;;;15.48;8.32;;;;;;;;;;4996086;28;20211;-62
2022/06/27 04:44:54;;;;;;;16.52;9.38;;;;;;;;;;4994984;28;20185;-62
2022/06/27 04:47:20;;;;;;;14.80;8.23;;;;;;;;;;4996321;28;20180;-63
2022/06/27 04:50:03;;;;;;;13.52;8.43;;;;;;;;;;4994319;28;20191;-63
2022/06/27 04:52:29;;;;;;;13.45;8.85;;;;;;;;;;5013332;28;20180;-63
2022/06/27 04:54:56;;;;;;;17.27;8.45;;;;;;;;;;4995853;28;20655;-63
2022/06/27 04:57:23;;;;;;;14.35;8.82;;;;;;;;;;4995556;28;20548;-62
2022/06/27 04:59:50;;;;;;;16.27;8.75;;;;;;;;;;4979060;28;20189;-62
2022/06/27 05:02:38;;;;;;;15.70;9.20;;;;;;;;;;4995321;28;20283;-62
2022/06/27 05:05:05;;;;;;;13.45;9.35;;;;;;;;;;4995986;28;20192;-63
2022/06/27 05:07:31;;;;;;;15.10;9.57;;;;;;;;;;4996319;28;20188;-62
2022/06/27 05:09:58;;;;;;;14.18;9.27;;;;;;;;;;4990530;28;20590;-63
2022/06/27 05:12:24;;;;;;;14.18;9.55;;;;;;;;;;4993220;28;20177;-62
2022/06/27 05:14:51;;;;;;;14.98;8.38;;;;;;;;;;4992310;28;20195;-63
2022/06/27 05:17:18;;;;;;;18.80;9.43;;;;;;;;;;4992311;28;20181;-62
2022/06/27 05:19:44;;;;;;;17.55;10.10;;;;;;;;;;4991339;28;20244;-62
2022/06/27 05:22:10;;;;;;;14.65;9.90;;;;;;;;;;4991844;28;20264;-63
2022/06/27 05:24:37;;;;;;;16.23;10.50;;;;;;;;;;4975707;28;20196;-63
2022/06/27 05:27:03;;;;;;;17.08;10.50;;;;;;;;;;4992655;28;20644;-62
2022/06/27 05:29:29;;;;;;;13.98;9.95;;;;;;;;;;4991990;28;20193;-62
2022/06/27 05:31:56;;;;;;;16.65;10.38;;;;;;;;;;4990984;28;20189;-61
2022/06/27 05:34:22;;;;;;;18.73;11.15;;;;;;;;;;4992105;28;20712;-62
2022/06/27 05:36:49;;;;;;;17.15;11.35;;;;;;;;;;4991861;28;20231;-62
2022/06/27 05:39:15;;;;;;;16.00;10.80;;;;;;;;;;4990999;28;20216;-61
2022/06/27 05:41:43;;;;;;;17.60;11.38;;;;;;;;;;4990351;28;20189;-64
2022/06/27 05:44:15;;;;;;;14.85;11.05;;;;;;;;;;4976171;28;20185;-61
2022/06/27 05:46:42;;;;;;;19.48;10.98;;;;;;;;;;4994274;28;20247;-62
2022/06/27 05:49:33;;;;;;;16.55;10.30;;;;;;;;;;4995738;28;20664;-62
2022/06/27 05:52:00;;;;;;;19.13;10.88;;;;;;;;;;4990050;28;20216;-64
2022/06/27 05:54:27;;;;;;;20.52;11.10;;;;;;;;;;4994084;28;20538;-62
2022/06/27 05:56:53;;;;;;;18.88;11.48;;;;;;;;;;4993894;28;20184;-63
2022/06/27 05:59:21;;;;;;;20.42;11.27;;;;;;;;;;4995843;28;20343;-62
2022/06/27 06:01:49;;;;;;;14.85;10.45;;;;;;;;;;4993098;28;20192;-64
2022/06/27 06:04:17;;;;;;;22.17;11.68;;;;;;;;;;4993657;28;20520;-66
2022/06/27 06:06:44;;;;;;;18.63;11.38;;;;;;;;;;4995602;28;20185;-62
2022/06/27 06:09:11;;;;;;;19.55;11.70;;;;;;;;;;4992768;28;20225;-62
2022/06/27 06:11:38;;;;;;;16.92;12.15;;;;;;;;;;4994825;28;20284;-62
2022/06/27 06:14:05;;;;;;;23.17;11.73;;;;;;;;;;4995503;28;20248;-62
2022/06/27 06:16:31;;;;;;;17.35;11.70;;;;;;;;;;4979675;28;20195;-63
2022/06/27 06:18:59;;;;;;;19.05;11.80;;;;;;;;;;4993847;28;20585;-63
2022/06/27 06:21:26;;;;;;;22.38;11.55;;;;;;;;;;4995385;28;20685;-63
2022/06/27 06:23:52;;;;;;;17.63;11.80;;;;;;;;;;4994480;28;20192;-64
2022/06/27 06:26:19;;;;;;;18.15;12.13;;;;;;;;;;4994911;28;20173;-63
2022/06/27 06:28:46;;;;;;;18.35;12.25;;;;;;;;;;4995212;28;20217;-63
2022/06/27 06:31:21;;;;;;;23.35;12.55;;;;;;;;;;4994925;28;20220;-63
2022/06/27 06:33:57;;;;;;;17.92;12.20;;;;;;;;;;4993787;28;20204;-63
2022/06/27 06:36:24;;;;;;;22.50;11.63;;;;;;;;;;4996034;28;20181;-63
2022/06/27 06:38:51;;;;;;;17.63;10.77;;;;;;;;;;4994809;28;20220;-62
2022/06/27 06:41:18;;;;;;;18.75;10.50;;;;;;;;;;4992498;28;20657;-61
2022/06/27 06:43:46;;;;;;;15.82;10.38;;;;;;;;;;4995622;28;20185;-64
2022/06/27 06:46:32;;;;;;;18.63;10.82;;;;;;;;;;4996736;28;20247;-63
2022/06/27 06:49:10;;;;;;;19.67;10.25;;;;;;;;;;4994114;28;20188;-63
2022/06/27 06:51:39;;;;;;;16.42;10.02;;;;;;;;;;4982784;28;20204;-62
2022/06/27 06:54:06;;;;;;;14.38;9.45;;;;;;;;;;4992463;28;20260;-63
2022/06/27 06:56:32;;;;;;;17.10;9.57;;;;;;;;;;4994617;28;20618;-63
2022/06/27 06:58:59;;;;;;;16.58;9.50;;;;;;;;;;4995784;28;20252;-63
2022/06/27 07:01:25;;;;;;;14.73;8.88;;;;;;;;;;4990276;28;20272;-65
2022/06/27 07:03:53;;;;;;;15.27;9.80;;;;;;;;;;4994757;28;20173;-62
2022/06/27 07:06:24;;;;;;;20.17;9.35;;;;;;;;;;4994880;28;20181;-61
2022/06/27 07:08:53;;;;;;;12.13;8.80;;;;;;;;;;4996579;28;20185;-60
2022/06/27 07:11:21;;;;;;;10.55;8.25;;;;;;;;;;5013747;28;20176;-60
2022/06/27 07:13:48;;;;;;;15.93;8.85;;;;;;;;;;5015272;28;20688;-61
2022/06/27 07:16:15;;;;;;;15.02;8.40;;;;;;;;;;5014562;28;20188;-61
2022/06/27 07:18:43;;;;;;;12.20;8.30;;;;;;;;;;5014657;28;20208;-61
2022/06/27 07:21:09;;;;;;;14.82;8.50;;;;;;;;;;5012945;28;20283;-63
2022/06/27 07:23:35;;;;;;;14.23;9.20;;;;;;;;;;5008526;28;20196;-60
2022/06/27 07:26:02;;;;;;;15.48;8.52;;;;;;;;;;4997081;28;20188;-60
2022/06/27 07:28:29;;;;;;;15.63;8.70;;;;;;;;;;5011839;28;20202;-60
2022/06/27 07:30:58;;;;;;;13.98;8.10;;;;;;;;;;5014617;28;20208;-60
2022/06/27 07:33:25;;;;;;;19.05;9.23;;;;;;;;;;5015459;28;20180;-60
2022/06/27 07:35:51;;;;;;;15.63;8.95;;;;;;;;;;5014798;28;20196;-60
2022/06/27 07:38:17;;;;;;;15.18;8.95;;;;;;;;;;5013240;28;20216;-61
2022/06/27 07:40:44;;;;;;;17.35;10.20;;;;;;;;;;4992964;28;20605;-60
2022/06/27 07:43:13;;;;;;;15.10;9.20;;;;;;;;;;5014448;28;20212;-62
2022/06/27 07:45:41;;;;;;;14.55;9.43;;;;;;;;;;5014218;28;20188;-60
2022/06/27 07:48:08;;;;;;;15.35;9.43;;;;;;;;;;5014290;28;20649;-60
2022/06/27 07:50:38;;;;;;;20.83;9.20;;;;;;;;;;5013161;28;20181;-61
2022/06/27 07:53:15;;;;;;;14.70;9.60;;;;;;;;;;4996961;28;20218;-59
2022/06/27 07:55:47;;;;;;;15.93;9.80;;;;;;;;;;5014254;28;20188;-61
2022/06/27 07:58:16;;;;;;;21.92;9.27;;;;;;;;;;4996536;28;20220;-61
2022/06/27 08:00:43;;;;;;;18.73;9.70;;;;;;;;;;5012828;28;20555;-59
2022/06/27 08:05:54;;;;;;;14.18;9.30;;;;;;;;;;5012960;28;20243;-59
2022/06/27 08:08:23;;;;;;;14.75;9.20;;;;;;;;;;5012772;28;20188;-59
2022/06/27 08:10:49;;;;;;;13.77;9.10;;;;;;;;;;5011327;28;20224;-59
2022/06/27 08:13:15;;;;;;;16.58;8.88;;;;;;;;;;4996428;28;20625;-58
2022/06/27 08:15:42;;;;;;;14.23;8.88;;;;;;;;;;5013105;28;20189;-58
2022/06/27 08:18:09;;;;;;;16.95;9.45;;;;;;;;;;5013256;28;20219;-58
2022/06/27 08:20:37;;;;;;;15.75;8.45;;;;;;;;;;5013944;28;20185;-59
2022/06/27 08:23:03;;;;;;;15.30;8.77;;;;;;;;;;5013762;28;20173;-58
2022/06/27 08:25:30;;;;;;;17.08;9.32;;;;;;;;;;5011710;28;20644;-58
2022/06/27 08:27:56;;;;;;;14.85;8.40;;;;;;;;;;5014210;28;20189;-58
2022/06/27 08:30:27;;;;;;;14.38;9.20;;;;;;;;;;4995559;28;20625;-58
2022/06/27 08:32:55;;;;;;;22.30;9.27;;;;;;;;;;5013322;28;20189;-60
2022/06/27 08:35:24;;;;;;;14.25;8.32;;;;;;;;;;4995500;28;20271;-58
2022/06/27 08:37:50;;;;;;;20.02;9.50;;;;;;;;;;5012994;28;20223;-58
2022/06/27 08:40:17;;;;;;;13.80;8.80;;;;;;;;;;4995152;28;20193;-58
2022/06/27 08:42:45;;;;;;;24.38;10.35;;;;;;;;;;5013064;28;20207;-58
2022/06/27 08:45:12;;;;;;;13.30;8.60;;;;;;;;;;4993745;28;20184;-59
2022/06/27 08:47:38;;;;;;;14.70;8.13;;;;;;;;;;5013416;28;20185;-59
2022/06/27 08:50:07;;;;;;;14.88;8.05;;;;;;;;;;5012622;28;20184;-58
2022/06/27 08:52:34;;;;;;;16.27;8.90;;;;;;;;;;5011348;28;20184;-58
2022/06/27 08:55:01;;;;;;;13.65;7.93;;;;;;;;;;5013204;28;20183;-60
2022/06/27 08:57:27;;;;;;;15.23;8.40;;;;;;;;;;4996748;28;20191;-59
2022/06/27 08:59:54;;;;;;;16.40;8.32;;;;;;;;;;5013307;28;20184;-59
2022/06/27 09:02:25;;;;;;;19.30;8.30;;;;;;;;;;5012251;28;20282;-59
2022/06/27 09:04:59;;;;;;;14.02;8.73;;;;;;;;;;5012686;28;20192;-59
2022/06/27 09:07:45;;;;;;;17.92;9.38;;;;;;;;;;5000062;28;20648;-59
2022/06/27 09:10:27;;;;;;;17.40;8.90;;;;;;;;;;5011173;28;20703;-60
2022/06/27 09:12:58;;;;;;;14.10;8.65;;;;;;;;;;5012361;28;20235;-59
2022/06/27 09:15:50;;;;;;;13.63;8.88;;;;;;;;;;5013003;28;20195;-59
2022/06/27 09:18:20;;;;;;;17.38;9.38;;;;;;;;;;4981622;28;20587;-59
2022/06/27 09:20:47;;;;;;;13.43;8.55;;;;;;;;;;5012681;28;20208;-59
2022/06/27 09:23:39;;;;;;;21.80;10.18;;;;;;;;;;4995484;28;20215;-59
2022/06/27 09:26:09;;;;;;;16.55;9.48;;;;;;;;;;5012786;28;20184;-59
2022/06/27 09:28:44;;;;;;;16.13;9.02;;;;;;;;;;5010259;28;20211;-59
2022/06/27 09:31:12;;;;;;;15.57;9.10;;;;;;;;;;4994859;28;20188;-59
2022/06/27 09:33:42;;;;;;;13.95;10.30;;;;;;;;;;5012689;28;20223;-59
2022/06/27 09:36:09;;;;;;;15.60;9.95;;;;;;;;;;5013288;28;20629;-59
2022/06/27 09:38:35;;;;;;;13.18;9.85;;;;;;;;;;4977464;28;20223;-59
2022/06/27 09:41:02;;;;;;;18.52;9.38;;;;;;;;;;5010942;28;20271;-62
2022/06/27 09:43:30;;;;;;;18.63;9.57;;;;;;;;;;4993747;28;20227;-60
2022/06/27 09:45:57;;;;;;;17.65;9.95;;;;;;;;;;5000843;28;20188;-60
2022/06/27 09:48:24;;;;;;;19.63;10.02;;;;;;;;;;5011211;28;20184;-60
2022/06/27 09:50:53;;;;;;;13.75;8.82;;;;;;;;;;5009951;28;20188;-59
2022/06/27 09:53:26;;;;;;;12.77;8.43;;;;;;;;;;5012691;28;20188;-60
2022/06/27 09:55:53;;;;;;;18.67;10.20;;;;;;;;;;5012645;28;20250;-60
2022/06/27 09:58:20;;;;;;;17.15;9.73;;;;;;;;;;5012474;28;20246;-60
2022/06/27 10:00:48;;;;;;;15.65;9.60;;;;;;;;;;5009896;28;20625;-60
2022/06/27 10:03:16;;;;;;;16.15;9.55;;;;;;;;;;4995384;28;20177;-59
2022/06/27 10:05:43;;;;;;;17.55;9.70;;;;;;;;;;4994781;28;20189;-60
2022/06/27 10:08:10;;;;;;;15.75;10.30;;;;;;;;;;5012419;28;20275;-60
2022/06/27 10:11:15;;;;;;;16.67;10.55;;;;;;;;;;5009199;28;20224;-60
2022/06/27 10:13:42;;;;;;;20.02;11.98;;;;;;;;;;4932986;29;20191;-59
2022/06/27 10:16:13;;;;;;;22.02;11.77;;;;;;;;;;4916586;29;20175;-60
2022/06/27 10:18:52;;;;;;;28.35;19.05;;;;;;;;;;4973608;28;20228;-60
2022/06/27 10:21:29;;;;;;;19.88;11.73;;;;;;;;;;5010742;28;20215;-59
2022/06/27 10:24:14;;;;;;;20.88;11.35;;;;;;;;;;5011488;28;20296;-60
2022/06/27 10:26:42;;;;;;;16.73;10.15;;;;;;;;;;5012217;28;20258;-59
2022/06/27 10:29:34;;;;;;;17.75;10.70;;;;;;;;;;5012245;28;20188;-59
2022/06/27 10:32:01;;;;;;;19.38;11.18;;;;;;;;;;5006707;28;20277;-61
2022/06/27 10:34:39;;;;;;;17.00;11.18;;;;;;;;;;5015704;28;20176;-58
2022/06/27 10:37:26;;;;;;;17.10;10.98;;;;;;;;;;5015820;28;20234;-59
2022/06/27 10:39:53;;;;;;;18.77;10.88;;;;;;;;;;5014949;28;20189;-59
2022/06/27 10:42:38;;;;;;;21.60;10.98;;;;;;;;;;5012778;28;20235;-58
2022/06/27 10:45:23;;;;;;;20.67;10.85;;;;;;;;;;4981581;28;20662;-60
2022/06/27 10:47:50;;;;;;;25.40;10.98;;;;;;;;;;4997775;28;20180;-59
2022/06/27 10:50:17;;;;;;;17.70;10.02;;;;;;;;;;5015537;28;20185;-60
2022/06/27 10:52:44;;;;;;;15.07;8.88;;;;;;;;;;5014575;28;20176;-60
2022/06/27 10:55:22;;;;;;;16.88;8.85;;;;;;;;;;5013334;28;20176;-61
2022/06/27 10:57:48;;;;;;;16.83;7.85;;;;;;;;;;5015567;28;20293;-60
2022/06/27 11:00:34;;;;;;;15.00;8.82;;;;;;;;;;4997912;28;20715;-59
2022/06/27 11:03:01;;;;;;;18.45;10.20;;;;;;;;;;5001587;28;20205;-61
2022/06/27 11:05:29;;;;;;;17.90;9.20;;;;;;;;;;5014589;28;20184;-66
2022/06/27 11:07:55;;;;;;;16.25;9.95;;;;;;;;;;5015246;28;20251;-59
2022/06/27 11:10:22;;;;;;;17.42;10.15;;;;;;;;;;4995840;28;20302;-59
2022/06/27 11:12:48;;;;;;;14.93;9.63;;;;;;;;;;5015363;28;20187;-60
2022/06/27 11:15:14;;;;;;;17.13;10.65;;;;;;;;;;5015335;28;20207;-58
2022/06/27 11:17:45;;;;;;;23.02;9.65;;;;;;;;;;4979853;28;20215;-59
2022/06/27 11:20:19;;;;;;;17.98;10.15;;;;;;;;;;5012871;28;20184;-62
2022/06/27 11:22:46;;;;;;;15.85;9.65;;;;;;;;;;5013782;28;20693;-59
2022/06/27 11:25:12;;;;;;;20.77;10.10;;;;;;;;;;5014839;28;20184;-58
2022/06/27 11:27:52;;;;;;;18.02;9.85;;;;;;;;;;5014729;28;20216;-58
2022/06/27 11:33:12;;;;;;;16.85;10.48;;;;;;;;;;5013850;28;20193;-58
2022/06/27 11:35:38;;;;;;;16.05;11.00;;;;;;;;;;4997259;28;20617;-59
2022/06/27 11:38:05;;;;;;;18.52;10.23;;;;;;;;;;5012689;28;20616;-59
2022/06/27 11:40:32;;;;;;;16.15;10.52;;;;;;;;;;4992710;28;20177;-58
2022/06/27 11:42:58;;;;;;;16.35;9.75;;;;;;;;;;5010075;28;20276;-58
2022/06/27 11:45:24;;;;;;;16.20;10.27;;;;;;;;;;4981265;28;20931;-58
2022/06/27 11:47:50;;;;;;;16.73;10.65;;;;;;;;;;5015308;28;20184;-59
2022/06/27 11:50:20;;;;;;;19.02;10.52;;;;;;;;;;4996762;28;20232;-61
2022/06/27 11:52:46;;;;;;;21.67;11.13;;;;;;;;;;5017431;28;20177;-59
2022/06/27 11:55:14;;;;;;;22.33;11.05;;;;;;;;;;5017424;28;20180;-58
2022/06/27 11:57:44;;;;;;;18.63;11.35;;;;;;;;;;4996958;28;20179;-60
2022/06/27 12:00:16;;;;;;;17.58;10.15;;;;;;;;;;5000510;28;20184;-59
2022/06/27 12:02:43;;;;;;;16.25;9.02;;;;;;;;;;5013825;28;20181;-59
2022/06/27 12:05:28;;;;;;;16.27;9.52;;;;;;;;;;4998379;28;20185;-59
2022/06/27 12:08:03;;;;;;;16.40;9.02;;;;;;;;;;5021554;28;20184;-60
2022/06/27 12:10:41;;;;;;;17.98;9.05;;;;;;;;;;5019730;28;20219;-59
2022/06/27 12:13:09;;;;;;;18.15;9.13;;;;;;;;;;5021733;28;20180;-60
2022/06/27 12:15:37;;;;;;;18.27;9.90;;;;;;;;;;5019769;28;20500;-63
2022/06/27 12:18:03;;;;;;;18.52;10.80;;;;;;;;;;5019569;28;20262;-60
2022/06/27 12:20:31;;;;;;;19.42;11.30;;;;;;;;;;5001828;28;20181;-60
2022/06/27 12:22:57;;;;;;;19.25;10.63;;;;;;;;;;5013901;28;20185;-59
2022/06/27 12:25:23;;;;;;;17.73;9.68;;;;;;;;;;5013806;28;20187;-59
2022/06/27 12:27:49;;;;;;;15.93;9.57;;;;;;;;;;5012400;28;20197;-59
2022/06/27 12:30:16;;;;;;;18.02;10.57;;;;;;;;;;5009887;28;20617;-59
2022/06/27 12:32:42;;;;;;;18.58;10.43;;;;;;;;;;5013272;28;20205;-59
2022/06/27 12:35:09;;;;;;;18.10;10.65;;;;;;;;;;5013601;28;20184;-59
2022/06/27 12:37:35;;;;;;;17.92;10.20;;;;;;;;;;5013471;28;20188;-58
2022/06/27 12:40:02;;;;;;;14.70;10.55;;;;;;;;;;5012721;28;20184;-59
2022/06/27 12:42:28;;;;;;;17.63;10.75;;;;;;;;;;5013391;28;20176;-60
2022/06/27 12:44:54;;;;;;;15.43;11.45;;;;;;;;;;5013011;28;20640;-58
2022/06/27 12:47:20;;;;;;;18.90;11.85;;;;;;;;;;5013289;28;20177;-59
2022/06/27 12:49:47;;;;;;;22.40;11.68;;;;;;;;;;4995259;28;20679;-59
2022/06/27 12:52:13;;;;;;;20.13;11.57;;;;;;;;;;5010588;28;20188;-66
2022/06/27 12:54:39;;;;;;;17.23;11.43;;;;;;;;;;4994654;28;20184;-59
2022/06/27 12:57:06;;;;;;;15.27;10.75;;;;;;;;;;5013106;28;20204;-59
2022/06/27 12:59:33;;;;;;;17.90;11.02;;;;;;;;;;5013464;28;20212;-59
2022/06/27 13:01:59;;;;;;;24.08;11.95;;;;;;;;;;5012761;28;20677;-59
2022/06/27 13:04:25;;;;;;;22.10;11.98;;;;;;;;;;5011867;28;20189;-58
2022/06/27 13:06:51;;;;;;;23.13;11.50;;;;;;;;;;5012842;28;20187;-60
2022/06/27 13:09:17;;;;;;;24.77;11.13;;;;;;;;;;5013000;28;20244;-60
2022/06/27 13:11:44;;;;;;;16.73;10.07;;;;;;;;;;5012447;28;20188;-57
2022/06/27 13:14:10;;;;;;;19.77;10.35;;;;;;;;;;5012004;28;20208;-59
2022/06/27 13:16:36;;;;;;;23.70;8.90;;;;;;;;;;5012472;28;20222;-58
2022/06/27 13:19:03;;;;;;;17.17;6.50;;;;;;;;;;5012711;28;20224;-57
2022/06/27 13:21:29;;;;;;;16.20;4.45;;;;;;;;;;5013327;28;20239;-59
2022/06/27 13:23:55;;;;;;;43.88;5.00;;;;;;;;;;4994274;28;20196;-58
2022/06/27 13:26:21;;;;;;;22.40;3.85;;;;;;;;;;5012074;28;20192;-65
2022/06/27 13:28:47;;;;;;;34.13;3.38;;;;;;;;;;5012849;28;20679;-65
2022/06/27 13:31:13;;;;;;;18.10;3.33;;;;;;;;;;4995627;28;20188;-62
2022/06/27 13:33:39;;;;;;;14.20;4.60;;;;;;;;;;5012815;28;20172;-62
2022/06/27 13:36:05;;;;;;;13.52;5.35;;;;;;;;;;5011136;28;20288;-62
2022/06/27 13:38:32;;;;;;;19.80;5.72;;;;;;;;;;5012920;28;20612;-63
2022/06/27 13:40:58;;;;;;;18.85;6.55;;;;;;;;;;5012014;28;20364;-64
2022/06/27 13:43:24;;;;;;;27.70;7.60;;;;;;;;;;5012309;28;20267;-66
2022/06/27 13:45:50;;;;;;;13.43;6.38;;;;;;;;;;4993439;28;20246;-68
2022/06/27 13:48:16;;;;;;;23.17;7.97;;;;;;;;;;5012377;28;20176;-67
2022/06/27 13:50:43;;;;;;;23.15;7.55;;;;;;;;;;5010643;28;20545;-68
2022/06/27 13:53:09;;;;;;;20.73;8.32;;;;;;;;;;5012155;28;20190;-67
2022/06/27 13:55:37;;;;;;;20.50;10.05;;;;;;;;;;4978766;28;20216;-67
2022/06/27 13:58:07;;;;;;;20.83;9.38;;;;;;;;;;4994769;28;20259;-65
2022/06/27 14:00:34;;;;;;;21.42;9.07;;;;;;;;;;5012353;28;20210;-64
2022/06/27 14:03:01;;;;;;;26.88;10.93;;;;;;;;;;5011141;28;20180;-65
2022/06/27 14:05:27;;;;;;;20.70;9.00;;;;;;;;;;5011678;28;20176;-62
2022/06/27 14:07:53;;;;;;;25.73;10.23;;;;;;;;;;5011617;28;20177;-63
2022/06/27 14:10:21;;;;;;;25.92;9.85;;;;;;;;;;5014767;28;20447;-63
2022/06/27 14:12:48;;;;;;;28.48;12.07;;;;;;;;;;5014975;28;20208;-63
2022/06/27 14:15:15;;;;;;;28.92;9.45;;;;;;;;;;4998992;28;20196;-63
2022/06/27 14:17:41;;;;;;;25.83;10.30;;;;;;;;;;5013475;28;20283;-63
2022/06/27 14:20:09;;;;;;;26.50;11.35;;;;;;;;;;5013743;28;20184;-65
2022/06/27 14:22:35;;;;;;;28.05;13.02;;;;;;;;;;5016540;28;20536;-67
2022/06/27 14:25:02;;;;;;;36.60;14.20;;;;;;;;;;5009951;28;20194;-62
2022/06/27 14:27:28;;;;;;;28.30;13.48;;;;;;;;;;5007850;28;20193;-63
2022/06/27 14:29:54;;;;;;;32.03;15.90;;;;;;;;;;5007798;28;20189;-65
2022/06/27 14:32:20;;;;;;;34.90;16.02;;;;;;;;;;4998547;28;20527;-63
2022/06/27 14:34:47;;;;;;;40.17;16.45;;;;;;;;;;5014754;28;20180;-63
2022/06/27 14:37:13;;;;;;;33.45;15.15;;;;;;;;;;4998129;28;20188;-62
2022/06/27 14:39:39;;;;;;;34.35;15.07;;;;;;;;;;4998245;28;20244;-64
2022/06/27 14:42:05;;;;;;;29.10;14.65;;;;;;;;;;5016174;28;20244;-62
2022/06/27 14:44:34;;;;;;;34.92;14.88;;;;;;;;;;5014490;28;20189;-61